createdAt,value
2017-01-01T00:00:18.687Z,71.44
2017-01-01T00:00:44.780Z,71.72
2017-01-01T00:01:10.860Z,71.62
2017-01-01T00:01:36.973Z,71.44
2017-01-01T00:02:03.065Z,71.44
2017-01-01T00:02:29.156Z,72.19
2017-01-01T00:02:55.252Z,72
2017-01-01T00:03:21.348Z,71.91
2017-01-01T00:03:47.445Z,71.91
2017-01-01T00:04:13.538Z,71.91
2017-01-01T00:04:39.632Z,71.91
2017-01-01T00:05:05.745Z,71.34
2017-01-01T00:05:31.838Z,71.78
2017-01-01T00:05:57.953Z,71.91
2017-01-01T00:06:24.058Z,71.62
2017-01-01T00:06:50.157Z,71.72
2017-01-01T00:07:16.238Z,71.62
2017-01-01T00:07:42.335Z,71.91
2017-01-01T00:08:08.436Z,71.62
2017-01-01T00:08:34.525Z,71.69
2017-01-01T00:09:00.626Z,71.62
2017-01-01T00:09:26.713Z,72.1
2017-01-01T00:09:52.813Z,71.62
2017-01-01T00:10:18.906Z,71.97
2017-01-01T00:10:44.989Z,71.4
2017-01-01T00:11:11.088Z,71.78
2017-01-01T00:11:37.186Z,71.4
2017-01-01T00:12:03.265Z,72.16
2017-01-01T00:12:29.358Z,72.16
2017-01-01T00:12:55.468Z,72.25
2017-01-01T00:13:21.554Z,72.06
2017-01-01T00:13:47.650Z,72.16
2017-01-01T00:14:13.752Z,72.16
2017-01-01T00:14:39.840Z,72.06
2017-01-01T00:15:05.932Z,72.06
2017-01-01T00:15:32.038Z,72.06
2017-01-01T00:15:58.128Z,72.06
2017-01-01T00:16:24.212Z,72.16
2017-01-01T00:16:50.315Z,72.06
2017-01-01T00:17:16.410Z,71.97
2017-01-01T00:17:42.493Z,72.1
2017-01-01T00:18:08.595Z,71.97
2017-01-01T00:18:34.704Z,72.06
2017-01-01T00:19:00.786Z,72.19
2017-01-01T00:19:26.878Z,72.29
2017-01-01T00:19:52.981Z,72.48
2017-01-01T00:20:19.070Z,71.72
2017-01-01T00:20:45.173Z,71.72
2017-01-01T00:21:11.255Z,71.97
2017-01-01T00:21:37.354Z,72
2017-01-01T00:22:03.453Z,72.06
2017-01-01T00:22:29.541Z,72.19
2017-01-01T00:22:55.639Z,71.97
2017-01-01T00:23:21.747Z,72.06
2017-01-01T00:23:47.828Z,72.06
2017-01-01T00:24:13.920Z,72.06
2017-01-01T00:24:40.023Z,72.73
2017-01-01T00:25:06.121Z,72.63
2017-01-01T00:25:32.208Z,72.44
2017-01-01T00:25:58.309Z,72.86
2017-01-01T00:26:24.408Z,72.82
2017-01-01T00:26:50.507Z,72.77
2017-01-01T00:27:16.588Z,72.63
2017-01-01T00:27:42.687Z,72.92
2017-01-01T00:28:08.789Z,72.86
2017-01-01T00:28:34.873Z,72.86
2017-01-01T00:29:00.958Z,72.53
2017-01-01T00:29:27.067Z,72.63
2017-01-01T00:29:53.166Z,72.82
2017-01-01T00:30:19.250Z,72.77
2017-01-01T00:30:45.351Z,72.82
2017-01-01T00:31:11.443Z,72.73
2017-01-01T00:31:37.545Z,72.44
2017-01-01T00:32:03.635Z,72.73
2017-01-01T00:32:29.723Z,72.82
2017-01-01T00:32:55.827Z,72.82
2017-01-01T00:33:21.924Z,72.73
2017-01-01T00:33:48.019Z,73.3
2017-01-01T00:34:14.125Z,72.63
2017-01-01T00:34:40.221Z,73.11
2017-01-01T00:35:06.308Z,72.92
2017-01-01T00:35:32.408Z,73.01
2017-01-01T00:35:58.511Z,72.92
2017-01-01T00:36:24.598Z,73.01
2017-01-01T00:36:50.698Z,73.49
2017-01-01T00:37:16.796Z,73.49
2017-01-01T00:37:42.883Z,73.2
2017-01-01T00:38:08.977Z,73.39
2017-01-01T00:38:35.082Z,73.68
2017-01-01T00:39:01.170Z,73.58
2017-01-01T00:39:27.250Z,73.11
2017-01-01T00:39:53.359Z,73.58
2017-01-01T00:40:19.454Z,73.77
2017-01-01T00:40:45.537Z,73.68
2017-01-01T00:41:11.641Z,74.24
2017-01-01T00:41:37.738Z,74.05
2017-01-01T00:42:03.829Z,74.33
2017-01-01T00:42:29.929Z,73.96
2017-01-01T00:42:56.017Z,74.15
2017-01-01T00:43:22.122Z,74.15
2017-01-01T00:43:48.219Z,74.24
2017-01-01T00:44:14.307Z,73.68
2017-01-01T00:44:40.405Z,73.86
2017-01-01T00:45:06.502Z,74.15
2017-01-01T00:45:32.594Z,74.15
2017-01-01T00:45:58.691Z,74.24
2017-01-01T00:46:24.800Z,74.24
2017-01-01T00:46:50.880Z,74.33
2017-01-01T00:47:16.982Z,74.71
2017-01-01T00:47:43.082Z,74.81
2017-01-01T00:48:09.168Z,74.62
2017-01-01T00:48:35.275Z,74.43
2017-01-01T00:49:01.355Z,74.52
2017-01-01T00:49:27.453Z,74.71
2017-01-01T00:49:53.556Z,74.9
2017-01-01T00:50:19.638Z,74.71
2017-01-01T00:50:45.741Z,74.71
2017-01-01T00:51:11.847Z,75.38
2017-01-01T00:51:37.927Z,75.47
2017-01-01T00:52:04.018Z,75.38
2017-01-01T00:52:30.120Z,75.66
2017-01-01T00:52:56.216Z,75.38
2017-01-01T00:53:22.307Z,75.38
2017-01-01T00:53:48.401Z,75.66
2017-01-01T00:54:14.500Z,75.57
2017-01-01T00:54:40.604Z,75.66
2017-01-01T00:55:06.693Z,75.85
2017-01-01T00:55:32.790Z,75.76
2017-01-01T00:55:58.892Z,75.66
2017-01-01T00:56:24.980Z,75.66
2017-01-01T00:56:51.064Z,75.85
2017-01-01T00:57:17.176Z,75.76
2017-01-01T00:57:43.269Z,75.76
2017-01-01T00:58:09.356Z,75.66
2017-01-01T00:58:35.458Z,76.04
2017-01-01T00:59:01.555Z,76.14
2017-01-01T00:59:27.643Z,75.85
2017-01-01T00:59:53.742Z,75.85
2017-01-01T01:00:19.845Z,75.95
2017-01-01T01:00:45.935Z,75.76
2017-01-01T01:01:12.029Z,75.95
2017-01-01T01:01:38.130Z,75.66
2017-01-01T01:02:04.220Z,75.95
2017-01-01T01:02:30.312Z,75.95
2017-01-01T01:02:56.418Z,76.14
2017-01-01T01:03:22.510Z,75.95
2017-01-01T01:03:48.600Z,75.76
2017-01-01T01:04:14.701Z,76.14
2017-01-01T01:04:40.794Z,75.95
2017-01-01T01:05:06.893Z,75.95
2017-01-01T01:05:32.980Z,75.85
2017-01-01T01:05:59.074Z,75.95
2017-01-01T01:06:25.181Z,76.04
2017-01-01T01:06:51.269Z,76.14
2017-01-01T01:07:17.356Z,75.95
2017-01-01T01:07:43.455Z,76.32
2017-01-01T01:08:09.553Z,76.32
2017-01-01T01:08:35.634Z,76.32
2017-01-01T01:09:01.739Z,75.66
2017-01-01T01:09:27.830Z,75.76
2017-01-01T01:09:53.920Z,75.85
2017-01-01T01:10:20.021Z,75.95
2017-01-01T01:10:46.107Z,75.85
2017-01-01T01:11:12.214Z,75.66
2017-01-01T01:11:38.309Z,76.14
2017-01-01T01:12:04.404Z,76.14
2017-01-01T01:12:30.499Z,75.76
2017-01-01T01:12:56.596Z,75.95
2017-01-01T01:13:22.684Z,75.76
2017-01-01T01:13:48.787Z,75.85
2017-01-01T01:14:14.893Z,75.66
2017-01-01T01:14:40.972Z,75.66
2017-01-01T01:15:07.068Z,75.85
2017-01-01T01:15:33.167Z,75.57
2017-01-01T01:15:59.259Z,76.04
2017-01-01T01:16:25.362Z,76.04
2017-01-01T01:16:51.448Z,75.95
2017-01-01T01:17:17.543Z,75.85
2017-01-01T01:17:43.647Z,75.95
2017-01-01T01:18:09.732Z,75.95
2017-01-01T01:18:35.823Z,75.95
2017-01-01T01:19:01.930Z,75.76
2017-01-01T01:19:28.017Z,75.85
2017-01-01T01:19:54.108Z,75.66
2017-01-01T01:20:20.210Z,75.76
2017-01-01T01:20:46.300Z,75.95
2017-01-01T01:21:12.392Z,75.95
2017-01-01T01:21:38.492Z,75.85
2017-01-01T01:22:04.591Z,75.66
2017-01-01T01:22:30.689Z,76.04
2017-01-01T01:22:56.778Z,75.76
2017-01-01T01:23:22.869Z,75.85
2017-01-01T01:23:48.974Z,75.95
2017-01-01T01:24:15.064Z,76.14
2017-01-01T01:24:41.154Z,75.85
2017-01-01T01:25:07.255Z,76.04
2017-01-01T01:25:33.350Z,75.95
2017-01-01T01:25:59.438Z,75.76
2017-01-01T01:26:25.538Z,75.76
2017-01-01T01:26:51.637Z,75.57
2017-01-01T01:27:17.736Z,75.38
2017-01-01T01:27:43.826Z,75.38
2017-01-01T01:28:09.920Z,75.28
2017-01-01T01:28:36.023Z,75.57
2017-01-01T01:29:02.121Z,75.38
2017-01-01T01:29:28.206Z,75.57
2017-01-01T01:29:54.311Z,74.9
2017-01-01T01:30:20.407Z,74.71
2017-01-01T01:30:46.498Z,74.71
2017-01-01T01:31:12.598Z,74.62
2017-01-01T01:31:38.703Z,74.9
2017-01-01T01:32:04.788Z,74.9
2017-01-01T01:32:30.878Z,74.33
2017-01-01T01:32:56.974Z,74.33
2017-01-01T01:33:23.072Z,74.71
2017-01-01T01:33:49.169Z,73.96
2017-01-01T01:34:15.256Z,74.15
2017-01-01T01:34:41.364Z,74.24
2017-01-01T01:35:07.467Z,74.33
2017-01-01T01:35:33.548Z,74.24
2017-01-01T01:35:59.639Z,74.15
2017-01-01T01:36:25.741Z,73.77
2017-01-01T01:36:51.831Z,73.86
2017-01-01T01:37:17.928Z,73.77
2017-01-01T01:37:44.034Z,73.86
2017-01-01T01:38:10.118Z,74.15
2017-01-01T01:38:36.221Z,74.24
2017-01-01T01:39:02.307Z,74.24
2017-01-01T01:39:28.399Z,73.77
2017-01-01T01:39:54.502Z,74.43
2017-01-01T01:40:20.591Z,74.24
2017-01-01T01:40:46.686Z,73.77
2017-01-01T01:41:12.788Z,74.15
2017-01-01T01:41:38.880Z,73.77
2017-01-01T01:42:04.974Z,73.77
2017-01-01T01:42:31.100Z,73.96
2017-01-01T01:42:57.188Z,74.05
2017-01-01T01:43:23.273Z,73.96
2017-01-01T01:43:49.382Z,74.05
2017-01-01T01:44:15.470Z,73.96
2017-01-01T01:44:41.561Z,74.05
2017-01-01T01:45:07.662Z,74.15
2017-01-01T01:45:33.767Z,73.58
2017-01-01T01:45:59.845Z,73.86
2017-01-01T01:46:25.940Z,73.86
2017-01-01T01:46:52.048Z,73.68
2017-01-01T01:47:18.132Z,73.77
2017-01-01T01:47:44.224Z,73.77
2017-01-01T01:48:10.329Z,73.45
2017-01-01T01:48:36.419Z,73.45
2017-01-01T01:49:02.499Z,74.05
2017-01-01T01:49:28.599Z,73.45
2017-01-01T01:49:54.700Z,73.45
2017-01-01T01:50:20.798Z,74.02
2017-01-01T01:50:46.886Z,73.92
2017-01-01T01:51:12.976Z,74.02
2017-01-01T01:51:39.083Z,74.11
2017-01-01T01:52:05.173Z,73.64
2017-01-01T01:52:31.261Z,74.21
2017-01-01T01:52:57.373Z,74.21
2017-01-01T01:53:23.467Z,74.21
2017-01-01T01:53:49.547Z,74.21
2017-01-01T01:54:15.651Z,74.4
2017-01-01T01:54:41.750Z,74.21
2017-01-01T01:55:07.842Z,74.21
2017-01-01T01:55:33.938Z,74.02
2017-01-01T01:56:00.028Z,74.02
2017-01-01T01:56:26.131Z,73.92
2017-01-01T01:56:52.224Z,74.21
2017-01-01T01:57:18.307Z,74.3
2017-01-01T01:57:44.415Z,74.11
2017-01-01T01:58:10.509Z,74.3
2017-01-01T01:58:36.605Z,73.92
2017-01-01T01:59:02.699Z,74.58
2017-01-01T01:59:28.806Z,74.02
2017-01-01T01:59:54.887Z,74.21
2017-01-01T02:00:20.986Z,74.4
2017-01-01T02:00:47.075Z,74.58
2017-01-01T02:01:13.178Z,74.4
2017-01-01T02:01:39.274Z,74.68
2017-01-01T02:03:01.295Z,74.77
2017-01-01T02:03:27.404Z,74.77
2017-01-01T02:03:53.493Z,75.43
2017-01-01T02:04:19.582Z,75.34
2017-01-01T02:04:45.684Z,75.34
2017-01-01T02:05:11.779Z,75.43
2017-01-01T02:05:37.863Z,75.24
2017-01-01T02:06:03.967Z,75.24
2017-01-01T02:06:30.062Z,75.24
2017-01-01T02:06:56.158Z,75.53
2017-01-01T02:07:22.253Z,75.53
2017-01-01T02:07:48.334Z,75.53
2017-01-01T02:08:14.442Z,75.24
2017-01-01T02:08:40.540Z,75.81
2017-01-01T02:09:06.621Z,75.62
2017-01-01T02:09:32.722Z,75.62
2017-01-01T02:09:58.814Z,75.62
2017-01-01T02:10:24.907Z,75.91
2017-01-01T02:10:51.007Z,75.72
2017-01-01T02:11:17.112Z,76
2017-01-01T02:11:43.194Z,75.81
2017-01-01T02:12:09.287Z,76.19
2017-01-01T02:12:35.380Z,76.19
2017-01-01T02:13:01.482Z,75.72
2017-01-01T02:13:27.583Z,75.72
2017-01-01T02:13:53.664Z,75.91
2017-01-01T02:14:19.762Z,76
2017-01-01T02:14:45.870Z,75.91
2017-01-01T02:15:11.950Z,75.91
2017-01-01T02:15:38.051Z,76.1
2017-01-01T02:16:04.148Z,75.91
2017-01-01T02:16:30.237Z,75.91
2017-01-01T02:16:56.326Z,75.91
2017-01-01T02:17:22.431Z,75.91
2017-01-01T02:17:48.522Z,75.91
2017-01-01T02:18:14.620Z,75.81
2017-01-01T02:18:40.702Z,75.91
2017-01-01T02:19:06.802Z,75.81
2017-01-01T02:19:32.906Z,75.91
2017-01-01T02:19:58.993Z,75.91
2017-01-01T02:20:25.089Z,76
2017-01-01T02:20:51.190Z,75.91
2017-01-01T02:21:17.283Z,75.72
2017-01-01T02:21:43.374Z,75.72
2017-01-01T02:22:09.477Z,75.53
2017-01-01T02:22:35.569Z,76.1
2017-01-01T02:23:01.654Z,76.1
2017-01-01T02:23:27.760Z,76.1
2017-01-01T02:23:53.854Z,75.91
2017-01-01T02:24:19.954Z,75.91
2017-01-01T02:24:46.043Z,75.62
2017-01-01T02:25:12.126Z,76
2017-01-01T02:25:38.233Z,76.1
2017-01-01T02:26:04.322Z,76.57
2017-01-01T02:26:30.411Z,76.48
2017-01-01T02:26:56.510Z,76.76
2017-01-01T02:27:22.604Z,76.29
2017-01-01T02:27:48.691Z,76.29
2017-01-01T02:28:14.795Z,76.57
2017-01-01T02:28:40.901Z,76.19
2017-01-01T02:29:06.979Z,76.1
2017-01-01T02:29:33.079Z,76.86
2017-01-01T02:29:59.176Z,77.04
2017-01-01T02:30:25.266Z,76.86
2017-01-01T02:30:51.357Z,76.57
2017-01-01T02:31:17.462Z,76.86
2017-01-01T02:31:43.555Z,76.76
2017-01-01T02:32:09.645Z,77.14
2017-01-01T02:32:35.745Z,77.33
2017-01-01T02:33:01.835Z,77.14
2017-01-01T02:33:27.921Z,77.14
2017-01-01T02:33:54.026Z,77.33
2017-01-01T02:34:20.127Z,77.29
2017-01-01T02:34:46.219Z,77.14
2017-01-01T02:35:12.315Z,77.14
2017-01-01T02:35:38.404Z,77.33
2017-01-01T02:36:04.510Z,76.91
2017-01-01T02:36:30.602Z,76.57
2017-01-01T02:36:56.690Z,76.72
2017-01-01T02:37:22.795Z,76.91
2017-01-01T02:37:48.938Z,76.82
2017-01-01T02:38:15.029Z,77.29
2017-01-01T02:38:41.136Z,77.2
2017-01-01T02:39:07.235Z,77.2
2017-01-01T02:39:33.313Z,76.91
2017-01-01T02:39:59.406Z,77.29
2017-01-01T02:40:25.500Z,76.91
2017-01-01T02:40:51.604Z,76.82
2017-01-01T02:41:17.702Z,77.2
2017-01-01T02:41:43.787Z,76.91
2017-01-01T02:42:09.883Z,76.86
2017-01-01T02:42:35.987Z,76.63
2017-01-01T02:43:02.076Z,76.34
2017-01-01T02:43:28.172Z,76.29
2017-01-01T02:43:54.272Z,76.25
2017-01-01T02:44:20.361Z,76.19
2017-01-01T02:44:46.452Z,76.44
2017-01-01T02:45:12.559Z,76.48
2017-01-01T02:45:38.647Z,76.57
2017-01-01T02:46:04.744Z,76.15
2017-01-01T02:46:30.828Z,75.87
2017-01-01T02:46:56.927Z,76
2017-01-01T02:47:23.036Z,75.91
2017-01-01T02:47:49.118Z,75.49
2017-01-01T02:48:15.209Z,76.25
2017-01-01T02:48:41.309Z,75.91
2017-01-01T02:49:07.404Z,75.78
2017-01-01T02:49:33.493Z,75.91
2017-01-01T02:49:59.595Z,76.06
2017-01-01T02:50:25.685Z,75.72
2017-01-01T02:50:51.766Z,75.72
2017-01-01T02:51:17.872Z,75.62
2017-01-01T02:51:43.957Z,75.53
2017-01-01T02:52:10.066Z,76
2017-01-01T02:52:36.158Z,76
2017-01-01T02:53:02.248Z,76.1
2017-01-01T02:53:28.352Z,75.91
2017-01-01T02:53:54.442Z,75.91
2017-01-01T02:54:20.527Z,76.1
2017-01-01T02:54:46.628Z,75.96
2017-01-01T02:55:12.723Z,75.78
2017-01-01T02:55:38.804Z,75.72
2017-01-01T02:56:04.903Z,75.91
2017-01-01T02:56:31.001Z,75.87
2017-01-01T02:56:57.094Z,75.78
2017-01-01T02:57:23.188Z,75.59
2017-01-01T02:57:49.268Z,75.87
2017-01-01T02:58:15.373Z,76.15
2017-01-01T02:58:41.467Z,76.15
2017-01-01T02:59:07.553Z,76.06
2017-01-01T02:59:33.655Z,76.15
2017-01-01T02:59:59.752Z,76.44
2017-01-01T03:00:25.837Z,76.25
2017-01-01T03:00:51.932Z,76.15
2017-01-01T03:01:18.035Z,76.25
2017-01-01T03:01:44.122Z,76.34
2017-01-01T03:02:10.218Z,76.25
2017-01-01T03:02:36.305Z,76.19
2017-01-01T03:03:02.408Z,75.96
2017-01-01T03:03:28.516Z,76.63
2017-01-01T03:03:54.594Z,76.15
2017-01-01T03:04:20.687Z,76.44
2017-01-01T03:04:46.791Z,76.63
2017-01-01T03:05:12.880Z,76.82
2017-01-01T03:05:38.973Z,76.72
2017-01-01T03:06:05.079Z,76.91
2017-01-01T03:06:31.171Z,76.82
2017-01-01T03:06:57.258Z,77.29
2017-01-01T03:07:23.364Z,77.29
2017-01-01T03:07:49.466Z,77.1
2017-01-01T03:08:15.615Z,77.1
2017-01-01T03:08:41.697Z,77.29
2017-01-01T03:09:07.790Z,77.1
2017-01-01T03:09:33.892Z,77.01
2017-01-01T03:09:59.987Z,77.39
2017-01-01T03:10:26.075Z,77.39
2017-01-01T03:10:52.177Z,77.39
2017-01-01T03:11:18.271Z,77.86
2017-01-01T03:11:44.357Z,77.58
2017-01-01T03:12:10.456Z,77.95
2017-01-01T03:12:36.553Z,78.23
2017-01-01T03:13:02.640Z,78.33
2017-01-01T03:13:28.737Z,77.95
2017-01-01T03:13:54.844Z,78.23
2017-01-01T03:14:20.924Z,78.23
2017-01-01T03:14:47.016Z,77.86
2017-01-01T03:15:13.121Z,77.95
2017-01-01T03:15:39.210Z,77.86
2017-01-01T03:16:05.306Z,78.05
2017-01-01T03:16:31.402Z,78.05
2017-01-01T03:16:57.492Z,78.33
2017-01-01T03:17:23.577Z,78.71
2017-01-01T03:17:49.685Z,78.61
2017-01-01T03:18:15.771Z,78.52
2017-01-01T03:18:41.860Z,78.9
2017-01-01T03:19:07.964Z,78.9
2017-01-01T03:19:34.053Z,79.28
2017-01-01T03:20:00.158Z,78.9
2017-01-01T03:20:26.252Z,79.28
2017-01-01T03:20:52.340Z,79.28
2017-01-01T03:21:18.441Z,79.47
2017-01-01T03:21:44.530Z,79.47
2017-01-01T03:22:10.622Z,79.66
2017-01-01T03:22:36.722Z,79.47
2017-01-01T03:23:02.822Z,79.56
2017-01-01T03:23:28.914Z,79.47
2017-01-01T03:23:55.021Z,79.66
2017-01-01T03:24:21.124Z,79.18
2017-01-01T03:24:47.213Z,79.28
2017-01-01T03:25:13.307Z,79.66
2017-01-01T03:25:39.390Z,79.28
2017-01-01T03:26:05.494Z,79.66
2017-01-01T03:26:31.586Z,79.18
2017-01-01T03:26:57.678Z,79.18
2017-01-01T03:27:23.778Z,79.18
2017-01-01T03:27:49.881Z,79.47
2017-01-01T03:28:15.961Z,79.28
2017-01-01T03:28:42.055Z,79.47
2017-01-01T03:29:08.163Z,79.37
2017-01-01T03:29:34.247Z,79.56
2017-01-01T03:30:00.336Z,79.56
2017-01-01T03:30:26.423Z,79.56
2017-01-01T03:30:52.525Z,79.09
2017-01-01T03:31:18.628Z,78.99
2017-01-01T03:31:44.712Z,79.28
2017-01-01T03:32:10.808Z,79.28
2017-01-01T03:32:36.907Z,79.28
2017-01-01T03:33:02.998Z,79.18
2017-01-01T03:33:29.087Z,78.9
2017-01-01T03:33:55.193Z,79.09
2017-01-01T03:34:21.284Z,79.56
2017-01-01T03:34:47.373Z,79.66
2017-01-01T03:35:13.474Z,79.56
2017-01-01T03:35:39.567Z,79.47
2017-01-01T03:36:05.667Z,78.99
2017-01-01T03:36:31.749Z,79.18
2017-01-01T03:36:57.837Z,78.9
2017-01-01T03:37:23.935Z,79.09
2017-01-01T03:37:51.444Z,78.99
2017-01-01T03:38:18.028Z,78.42
2017-01-01T03:38:44.136Z,78.23
2017-01-01T03:39:10.231Z,78.52
2017-01-01T03:39:36.319Z,78.42
2017-01-01T03:40:02.416Z,78.52
2017-01-01T03:40:28.512Z,78.71
2017-01-01T03:40:54.592Z,78.9
2017-01-01T03:41:20.689Z,78.9
2017-01-01T03:41:46.781Z,79.09
2017-01-01T03:42:12.884Z,78.8
2017-01-01T03:42:38.978Z,78.9
2017-01-01T03:43:05.058Z,78.9
2017-01-01T03:43:31.166Z,78.9
2017-01-01T03:43:57.263Z,78.8
2017-01-01T03:44:23.352Z,78.8
2017-01-01T03:44:49.443Z,78.99
2017-01-01T03:45:15.547Z,78.9
2017-01-01T03:45:41.629Z,78.33
2017-01-01T03:46:07.733Z,78.52
2017-01-01T03:46:33.839Z,78.52
2017-01-01T03:46:59.924Z,78.8
2017-01-01T03:47:26.021Z,78.9
2017-01-01T03:47:52.113Z,78.9
2017-01-01T03:48:18.214Z,78.8
2017-01-01T03:48:44.315Z,79.09
2017-01-01T03:49:10.399Z,78.9
2017-01-01T03:49:36.492Z,78.8
2017-01-01T03:50:02.598Z,78.8
2017-01-01T03:50:28.684Z,78.8
2017-01-01T03:50:54.783Z,78.75
2017-01-01T03:51:20.883Z,78.42
2017-01-01T03:51:46.975Z,78.61
2017-01-01T03:52:13.058Z,78.61
2017-01-01T03:52:39.159Z,78.71
2017-01-01T03:53:05.256Z,78.42
2017-01-01T03:53:31.355Z,78.71
2017-01-01T03:53:57.442Z,78.42
2017-01-01T03:54:23.532Z,78.23
2017-01-01T03:54:49.638Z,78.61
2017-01-01T03:55:15.743Z,78.52
2017-01-01T03:55:41.815Z,77.99
2017-01-01T03:56:07.916Z,77.89
2017-01-01T03:56:34.005Z,78.18
2017-01-01T03:57:00.096Z,78.08
2017-01-01T03:57:26.200Z,78.14
2017-01-01T03:57:52.292Z,78.27
2017-01-01T03:58:18.383Z,78.05
2017-01-01T03:58:44.481Z,78.42
2017-01-01T03:59:10.579Z,78.05
2017-01-01T03:59:36.666Z,78.71
2017-01-01T04:00:02.763Z,78.65
2017-01-01T04:00:28.868Z,78.71
2017-01-01T04:00:54.952Z,78.61
2017-01-01T04:01:21.042Z,78.33
2017-01-01T04:01:47.140Z,78.99
2017-01-01T04:02:13.223Z,78.9
2017-01-01T04:02:39.305Z,79.56
2017-01-01T04:03:05.415Z,79.18
2017-01-01T04:03:31.505Z,79.47
2017-01-01T04:03:57.599Z,79.47
2017-01-01T04:04:23.690Z,79.47
2017-01-01T04:04:49.785Z,79.47
2017-01-01T04:05:15.920Z,79.37
2017-01-01T04:05:42.002Z,79.28
2017-01-01T04:06:08.085Z,79.37
2017-01-01T04:06:34.198Z,79.47
2017-01-01T04:07:00.294Z,79.56
2017-01-01T04:07:26.384Z,80.04
2017-01-01T04:07:52.480Z,79.94
2017-01-01T04:08:18.576Z,79.75
2017-01-01T04:08:44.658Z,80.13
2017-01-01T04:09:10.761Z,80.13
2017-01-01T04:09:36.846Z,80.04
2017-01-01T04:10:02.952Z,80.22
2017-01-01T04:10:29.038Z,79.94
2017-01-01T04:10:55.126Z,80.32
2017-01-01T04:11:21.231Z,80.6
2017-01-01T04:11:47.331Z,80.22
2017-01-01T04:12:13.409Z,80.51
2017-01-01T04:12:39.508Z,80.13
2017-01-01T04:13:05.607Z,80.51
2017-01-01T04:13:31.691Z,80.32
2017-01-01T04:13:57.784Z,80.32
2017-01-01T04:14:23.888Z,80.79
2017-01-01T04:14:49.969Z,80.13
2017-01-01T04:15:16.068Z,80.04
2017-01-01T04:15:42.154Z,80.32
2017-01-01T04:16:08.257Z,80.41
2017-01-01T04:16:34.366Z,80.79
2017-01-01T04:17:00.440Z,81.17
2017-01-01T04:17:26.533Z,80.88
2017-01-01T04:17:52.637Z,80.69
2017-01-01T04:18:18.723Z,81.17
2017-01-01T04:18:44.815Z,81.26
2017-01-01T04:19:10.919Z,81.17
2017-01-01T04:19:37.013Z,81.17
2017-01-01T04:20:03.098Z,81.17
2017-01-01T04:20:29.204Z,81.07
2017-01-01T04:20:55.306Z,80.79
2017-01-01T04:21:21.414Z,80.98
2017-01-01T04:21:47.494Z,80.79
2017-01-01T04:22:13.586Z,80.88
2017-01-01T04:22:39.690Z,80.69
2017-01-01T04:23:05.775Z,80.79
2017-01-01T04:23:31.862Z,80.51
2017-01-01T04:23:57.972Z,80.79
2017-01-01T04:24:24.062Z,80.69
2017-01-01T04:24:50.148Z,80.69
2017-01-01T04:25:16.248Z,81.07
2017-01-01T04:25:42.341Z,81.17
2017-01-01T04:26:08.444Z,81.17
2017-01-01T04:26:34.528Z,81.17
2017-01-01T04:27:00.614Z,81.17
2017-01-01T04:27:26.722Z,81.26
2017-01-01T04:27:52.816Z,81.26
2017-01-01T04:28:18.904Z,81.17
2017-01-01T04:28:45.007Z,81.36
2017-01-01T04:29:11.103Z,81.45
2017-01-01T04:29:37.182Z,81.74
2017-01-01T04:30:03.287Z,81.45
2017-01-01T04:30:29.384Z,81.74
2017-01-01T04:30:55.472Z,81.55
2017-01-01T04:31:21.565Z,81.26
2017-01-01T04:31:47.654Z,81.17
2017-01-01T04:32:13.760Z,81.36
2017-01-01T04:32:39.858Z,81.07
2017-01-01T04:33:05.939Z,81.26
2017-01-01T04:33:32.035Z,81.36
2017-01-01T04:33:58.134Z,81.45
2017-01-01T04:34:24.214Z,81.36
2017-01-01T04:34:50.306Z,81.74
2017-01-01T04:35:16.412Z,81.83
2017-01-01T04:35:42.500Z,81.55
2017-01-01T04:36:08.594Z,81.45
2017-01-01T04:36:34.718Z,81.64
2017-01-01T04:37:00.806Z,81.64
2017-01-01T04:37:26.909Z,81.55
2017-01-01T04:37:52.987Z,81.55
2017-01-01T04:38:19.080Z,82.12
2017-01-01T04:38:45.190Z,82.12
2017-01-01T04:39:11.268Z,82.31
2017-01-01T04:39:37.364Z,82.02
2017-01-01T04:40:03.468Z,82.5
2017-01-01T04:40:29.559Z,82.12
2017-01-01T04:40:55.638Z,82.5
2017-01-01T04:41:21.745Z,82.68
2017-01-01T04:41:47.840Z,82.59
2017-01-01T04:42:13.932Z,82.31
2017-01-01T04:42:40.033Z,83.06
2017-01-01T04:43:06.132Z,82.31
2017-01-01T04:43:32.221Z,82.97
2017-01-01T04:43:58.316Z,82.87
2017-01-01T04:44:24.417Z,82.4
2017-01-01T04:44:50.503Z,82.59
2017-01-01T04:45:16.595Z,82.21
2017-01-01T04:45:42.702Z,82.4
2017-01-01T04:46:08.787Z,82.5
2017-01-01T04:46:34.879Z,82.4
2017-01-01T04:47:00.979Z,82.68
2017-01-01T04:47:27.067Z,82.68
2017-01-01T04:47:53.156Z,82.87
2017-01-01T04:48:19.253Z,82.31
2017-01-01T04:48:45.350Z,82.31
2017-01-01T04:49:11.460Z,82.4
2017-01-01T04:49:37.543Z,82.12
2017-01-01T04:50:03.640Z,82.78
2017-01-01T04:50:29.745Z,82.68
2017-01-01T04:50:55.833Z,82.78
2017-01-01T04:51:21.912Z,82.87
2017-01-01T04:51:48.025Z,82.97
2017-01-01T04:52:14.118Z,83.15
2017-01-01T04:52:40.207Z,83.34
2017-01-01T04:53:06.302Z,83.44
2017-01-01T04:53:32.397Z,83.53
2017-01-01T04:53:58.495Z,83.34
2017-01-01T04:54:24.580Z,83.15
2017-01-01T04:54:50.666Z,83.25
2017-01-01T04:55:16.773Z,83.44
2017-01-01T04:55:42.860Z,83.53
2017-01-01T04:56:08.947Z,83.63
2017-01-01T04:56:35.053Z,83.53
2017-01-01T04:57:01.152Z,83.06
2017-01-01T04:57:27.232Z,83.63
2017-01-01T04:57:53.331Z,83.34
2017-01-01T04:58:19.432Z,83.63
2017-01-01T04:58:45.514Z,82.97
2017-01-01T04:59:11.618Z,83.53
2017-01-01T04:59:37.705Z,83.44
2017-01-01T05:00:03.803Z,83.25
2017-01-01T05:00:29.898Z,83.06
2017-01-01T05:00:55.990Z,83.53
2017-01-01T05:01:22.089Z,83.15
2017-01-01T05:01:48.191Z,83.72
2017-01-01T05:02:14.276Z,83.34
2017-01-01T05:02:40.371Z,83.34
2017-01-01T05:03:06.479Z,83.25
2017-01-01T05:03:32.561Z,83.15
2017-01-01T05:03:58.654Z,82.87
2017-01-01T05:04:24.757Z,82.97
2017-01-01T05:04:50.842Z,83.06
2017-01-01T05:05:16.949Z,83.06
2017-01-01T05:05:43.027Z,83.15
2017-01-01T05:06:09.124Z,82.87
2017-01-01T05:06:35.222Z,82.87
2017-01-01T05:07:01.316Z,83.06
2017-01-01T05:07:27.409Z,83.15
2017-01-01T05:07:53.510Z,82.59
2017-01-01T05:08:19.595Z,82.87
2017-01-01T05:08:45.708Z,82.31
2017-01-01T05:09:11.812Z,82.4
2017-01-01T05:09:37.905Z,82.31
2017-01-01T05:10:03.994Z,82.59
2017-01-01T05:10:30.096Z,82.5
2017-01-01T05:10:56.179Z,82.59
2017-01-01T05:11:22.283Z,82.12
2017-01-01T05:11:48.368Z,82.5
2017-01-01T05:12:14.456Z,82.5
2017-01-01T05:12:40.558Z,82.68
2017-01-01T05:13:06.649Z,83.06
2017-01-01T05:13:32.734Z,82.87
2017-01-01T05:13:58.835Z,82.68
2017-01-01T05:14:24.924Z,82.59
2017-01-01T05:14:51.013Z,82.68
2017-01-01T05:15:17.113Z,82.59
2017-01-01T05:15:43.209Z,82.5
2017-01-01T05:16:09.301Z,82.59
2017-01-01T05:16:35.395Z,82.78
2017-01-01T05:17:01.475Z,83.06
2017-01-01T05:17:27.581Z,82.97
2017-01-01T05:17:53.677Z,82.68
2017-01-01T05:18:19.764Z,82.5
2017-01-01T05:18:45.865Z,83.06
2017-01-01T05:19:11.968Z,82.97
2017-01-01T05:19:38.046Z,82.68
2017-01-01T05:20:04.143Z,82.97
2017-01-01T05:20:30.248Z,82.87
2017-01-01T05:20:56.335Z,82.78
2017-01-01T05:21:22.430Z,83.06
2017-01-01T05:21:48.524Z,82.68
2017-01-01T05:22:14.625Z,82.68
2017-01-01T05:22:40.733Z,82.59
2017-01-01T05:23:06.809Z,82.68
2017-01-01T05:23:32.909Z,82.59
2017-01-01T05:23:59.007Z,83.15
2017-01-01T05:24:25.094Z,82.87
2017-01-01T05:24:51.185Z,82.59
2017-01-01T05:25:17.286Z,82.87
2017-01-01T05:25:43.378Z,82.59
2017-01-01T05:26:09.469Z,82.59
2017-01-01T05:26:35.578Z,82.87
2017-01-01T05:27:01.670Z,82.87
2017-01-01T05:27:27.749Z,82.97
2017-01-01T05:27:53.858Z,83.15
2017-01-01T05:28:19.958Z,82.87
2017-01-01T05:28:46.048Z,83.53
2017-01-01T05:29:12.143Z,83.72
2017-01-01T05:29:38.246Z,83.82
2017-01-01T05:30:04.331Z,83.63
2017-01-01T05:30:30.445Z,83.72
2017-01-01T05:30:56.552Z,83.72
2017-01-01T05:31:22.633Z,83.53
2017-01-01T05:31:48.726Z,83.63
2017-01-01T05:32:14.827Z,83.53
2017-01-01T05:32:40.920Z,83.63
2017-01-01T05:33:07.024Z,83.63
2017-01-01T05:33:33.101Z,83.63
2017-01-01T05:33:59.200Z,83.63
2017-01-01T05:34:25.302Z,83.44
2017-01-01T05:34:51.391Z,83.34
2017-01-01T05:35:17.483Z,83.53
2017-01-01T05:35:43.578Z,83.53
2017-01-01T05:36:09.666Z,83.06
2017-01-01T05:36:35.750Z,83.34
2017-01-01T05:37:01.885Z,83.63
2017-01-01T05:37:27.975Z,83.25
2017-01-01T05:37:54.059Z,83.34
2017-01-01T05:38:20.164Z,83.53